Time;durP1;ratioP1;P1;durP2;ratioP2;P2;SDS_P1;SDS_P2;PMS_P1;PMS_P2;Temp;Humidity;BMP_temperature;BMP_pressure;BME280_temperature;BME280_humidity;BME280_pressure;Samples;Min_cycle;Max_cycle;Signal;HPM_P1;HPM_P2
2024/03/25 00:01:18;;;;;;;3.92;1.80;;;7.90;99.90;;;;;;4979393;28;20050;-51
2024/03/25 00:03:44;;;;;;;7.22;1.67;;;7.80;99.90;;;;;;4970058;28;20037;-50
2024/03/25 00:06:10;;;;;;;8.18;1.42;;;7.80;99.90;;;;;;4968626;28;20031;-51
2024/03/25 00:08:35;;;;;;;2.20;1.15;;;7.90;99.90;;;;;;4970116;28;20102;-56
2024/03/25 00:11:01;;;;;;;1.65;1.38;;;7.90;99.90;;;;;;4969634;28;20038;-52
2024/03/25 00:13:26;;;;;;;4.70;2.10;;;7.80;99.90;;;;;;4969538;28;20494;-50
2024/03/25 00:15:52;;;;;;;6.20;2.20;;;7.90;99.90;;;;;;4970318;28;20066;-54
2024/03/25 00:18:18;;;;;;;6.78;2.22;;;7.90;99.90;;;;;;4970245;28;20031;-56
2024/03/25 00:20:43;;;;;;;4.88;1.85;;;7.90;99.90;;;;;;4970334;28;20018;-56
2024/03/25 00:23:09;;;;;;;4.85;2.28;;;7.80;99.90;;;;;;4969871;28;20027;-50
2024/03/25 00:25:34;;;;;;;7.68;2.38;;;7.90;99.90;;;;;;4968361;28;20031;-53
2024/03/25 00:28:00;;;;;;;2.97;1.95;;;7.90;99.90;;;;;;4973910;28;20081;-53
2024/03/25 00:30:25;;;;;;;6.65;2.00;;;7.90;99.90;;;;;;4988670;28;20108;-53
2024/03/25 00:32:51;;;;;;;6.93;2.08;;;7.90;99.90;;;;;;4989183;28;20449;-54
2024/03/25 00:35:17;;;;;;;19.80;9.70;;;7.90;99.90;;;;;;4988858;28;20082;-50
2024/03/25 00:37:44;;;;;;;32.60;16.05;;;7.80;99.90;;;;;;4987745;28;20054;-51
2024/03/25 00:40:11;;;;;;;4.63;2.47;;;7.80;99.90;;;;;;4989030;28;20029;-54
2024/03/25 00:42:37;;;;;;;4.63;1.65;;;7.80;99.90;;;;;;4987142;28;20030;-52
2024/03/25 00:45:05;;;;;;;5.95;2.75;;;7.70;99.90;;;;;;4989035;28;20110;-54
2024/03/25 00:47:30;;;;;;;7.05;2.45;;;7.80;99.90;;;;;;4987084;28;20023;-50
2024/03/25 00:49:56;;;;;;;7.53;1.90;;;7.80;99.90;;;;;;4988927;28;20092;-50
2024/03/25 00:52:21;;;;;;;7.55;1.98;;;7.70;99.90;;;;;;4988734;28;20445;-53
2024/03/25 00:54:47;;;;;;;6.80;2.30;;;7.70;99.90;;;;;;4988970;28;20031;-56
2024/03/25 00:57:12;;;;;;;6.25;1.70;;;7.60;99.90;;;;;;4986178;28;20038;-54
2024/03/25 00:59:39;;;;;;;9.35;2.03;;;7.60;99.90;;;;;;4970764;28;20117;-46
2024/03/25 01:02:04;;;;;;;2.95;1.67;;;7.60;99.90;;;;;;4972172;28;20023;-51
2024/03/25 01:04:30;;;;;;;6.55;1.70;;;7.60;99.90;;;;;;4972446;28;20475;-51
2024/03/25 01:06:55;;;;;;;5.95;2.28;;;7.60;99.90;;;;;;4972208;28;20162;-52
2024/03/25 01:09:21;;;;;;;7.47;2.20;;;7.60;99.90;;;;;;4972408;28;20058;-50
2024/03/25 01:11:47;;;;;;;4.47;1.80;;;7.60;99.90;;;;;;4975581;28;20031;-48
2024/03/25 01:14:13;;;;;;;4.13;1.95;;;7.60;99.90;;;;;;4976027;28;20530;-48
2024/03/25 01:16:38;;;;;;;8.10;1.67;;;7.60;99.90;;;;;;4975932;28;20054;-45
2024/03/25 01:19:04;;;;;;;7.65;2.13;;;7.50;99.90;;;;;;4976086;28;20034;-49
2024/03/25 01:21:30;;;;;;;4.05;2.00;;;7.50;99.90;;;;;;4976016;28;20032;-46
2024/03/25 01:23:55;;;;;;;3.42;1.90;;;7.60;99.90;;;;;;4974728;28;20023;-48
2024/03/25 01:26:21;;;;;;;6.10;1.60;;;7.50;99.90;;;;;;4976080;28;20050;-47
2024/03/25 01:28:47;;;;;;;4.72;1.77;;;7.60;99.90;;;;;;4974909;28;20054;-45
2024/03/25 01:31:13;;;;;;;11.10;2.50;;;7.60;99.90;;;;;;4976091;28;20057;-48
2024/03/25 01:33:39;;;;;;;6.10;1.90;;;7.60;99.90;;;;;;5006499;23;20092;-44
2024/03/25 01:36:05;;;;;;;1.98;1.52;;;7.60;99.90;;;;;;4994982;28;20125;-45
2024/03/25 01:38:31;;;;;;;5.30;2.05;;;7.70;99.90;;;;;;4993451;28;20030;-49
2024/03/25 01:41:07;;;;;;;4.97;2.30;;;7.70;99.90;;;;;;4994668;28;20027;-45
2024/03/25 01:43:32;;;;;;;7.53;2.03;;;7.60;99.90;;;;;;4994807;28;20057;-46
2024/03/25 01:45:58;;;;;;;7.43;2.65;;;7.60;99.90;;;;;;4994887;28;20065;-46
2024/03/25 01:48:24;;;;;;;7.70;2.20;;;7.50;99.90;;;;;;4994908;28;20034;-46
2024/03/25 01:50:49;;;;;;;10.02;2.55;;;7.50;99.90;;;;;;4993337;28;20022;-47
2024/03/25 01:53:15;;;;;;;7.20;1.75;;;7.40;99.90;;;;;;4993169;28;20110;-52
2024/03/25 01:55:42;;;;;;;6.63;2.17;;;7.40;99.90;;;;;;4994632;28;20034;-44
2024/03/25 01:58:07;;;;;;;6.43;2.75;;;7.50;99.90;;;;;;4994276;28;20033;-51
2024/03/25 02:00:33;;;;;;;7.15;1.85;;;7.40;99.90;;;;;;4993161;28;20030;-45
2024/03/25 02:02:59;;;;;;;5.28;1.92;;;7.40;99.90;;;;;;4994350;28;20018;-47
2024/03/25 02:05:25;;;;;;;5.43;2.17;;;7.40;99.90;;;;;;4993447;28;20023;-46
2024/03/25 02:07:52;;;;;;;8.10;2.67;;;7.40;99.90;;;;;;4994270;28;20034;-47
2024/03/25 02:10:17;;;;;;;4.60;2.10;;;7.30;99.90;;;;;;4992816;28;20093;-49
2024/03/25 02:12:45;;;;;;;3.72;1.90;;;7.30;99.90;;;;;;4994589;28;20031;-48
2024/03/25 02:15:11;;;;;;;8.02;2.38;;;7.30;99.90;;;;;;4994258;28;20517;-46
2024/03/25 02:17:37;;;;;;;9.93;1.85;;;7.30;99.90;;;;;;4994043;28;20544;-47
2024/03/25 02:20:05;;;;;;;9.57;2.53;;;7.40;99.90;;;;;;4992943;28;20030;-48
2024/03/25 02:22:31;;;;;;;6.10;2.53;;;7.30;99.90;;;;;;4993539;28;20405;-47
2024/03/25 02:24:57;;;;;;;6.35;3.35;;;7.30;99.90;;;;;;4992731;28;20026;-51
2024/03/25 02:27:30;;;;;;;6.03;2.15;;;7.30;99.90;;;;;;4994172;28;20038;-46
2024/03/25 02:30:12;;;;;;;5.18;2.72;;;7.30;99.90;;;;;;4993849;28;20023;-47
2024/03/25 02:32:38;;;;;;;9.38;2.95;;;7.30;99.90;;;;;;4993632;28;20478;-48
2024/03/25 02:35:07;;;;;;;5.75;1.90;;;7.30;99.90;;;;;;4992747;28;20037;-45
2024/03/25 02:37:33;;;;;;;8.18;2.00;;;7.30;99.90;;;;;;4992368;28;20035;-48
2024/03/25 02:40:00;;;;;;;3.50;2.00;;;7.30;99.90;;;;;;4993976;28;20033;-45
2024/03/25 02:42:26;;;;;;;6.78;2.15;;;7.30;99.90;;;;;;4993481;28;20069;-50
2024/03/25 02:44:53;;;;;;;5.05;2.15;;;7.30;99.90;;;;;;4993836;28;20526;-48
2024/03/25 02:47:19;;;;;;;13.95;2.50;;;7.30;99.90;;;;;;4993642;28;20031;-49
2024/03/25 02:49:45;;;;;;;9.25;2.25;;;7.20;99.90;;;;;;4993760;28;20044;-49
2024/03/25 02:52:11;;;;;;;8.00;2.22;;;7.20;99.90;;;;;;4992024;28;20026;-46
2024/03/25 02:54:36;;;;;;;8.50;1.98;;;7.20;99.90;;;;;;4993552;28;20105;-46
2024/03/25 02:57:02;;;;;;;4.32;2.08;;;7.30;99.90;;;;;;4993116;28;20026;-48
2024/03/25 02:59:27;;;;;;;2.67;2.00;;;7.30;99.90;;;;;;4992180;28;20023;-49
2024/03/25 03:01:53;;;;;;;3.25;1.75;;;7.20;99.90;;;;;;4993445;28;20034;-48
2024/03/25 03:04:19;;;;;;;3.97;1.92;;;7.20;99.90;;;;;;4993298;28;20058;-45
2024/03/25 03:06:44;;;;;;;6.55;2.00;;;7.20;99.90;;;;;;4993379;28;20030;-48
2024/03/25 03:09:10;;;;;;;4.90;2.72;;;7.20;99.90;;;;;;4991847;28;20509;-47
2024/03/25 03:11:35;;;;;;;8.25;1.92;;;7.10;99.90;;;;;;4993070;28;20028;-48
2024/03/25 03:14:01;;;;;;;5.43;1.80;;;7.10;99.90;;;;;;4993096;28;20069;-44
2024/03/25 03:16:27;;;;;;;9.23;3.72;;;7.10;99.90;;;;;;4993188;28;20046;-48
2024/03/25 03:18:52;;;;;;;5.35;2.58;;;7.10;99.90;;;;;;4993258;28;20509;-54
2024/03/25 03:21:18;;;;;;;5.75;1.92;;;7.10;99.90;;;;;;4991796;28;20069;-50
2024/03/25 03:23:43;;;;;;;4.03;1.98;;;7.10;99.90;;;;;;4992894;28;20030;-51
2024/03/25 03:26:08;;;;;;;4.72;2.28;;;7.10;99.90;;;;;;4991678;28;20033;-48
2024/03/25 03:28:34;;;;;;;8.63;2.85;;;7.10;99.90;;;;;;4992770;28;20620;-49
2024/03/25 03:30:59;;;;;;;6.40;2.22;;;7.10;99.90;;;;;;4992792;28;20026;-48
2024/03/25 03:33:26;;;;;;;7.40;2.70;;;7.00;99.90;;;;;;4991850;28;20034;-49
2024/03/25 03:35:52;;;;;;;7.63;2.38;;;7.00;99.90;;;;;;4991507;28;20108;-48
2024/03/25 03:38:17;;;;;;;8.98;2.55;;;7.00;99.90;;;;;;4992592;28;20045;-47
2024/03/25 03:40:55;;;;;;;8.00;2.83;;;7.00;99.90;;;;;;4992666;28;20018;-49
2024/03/25 03:43:20;;;;;;;6.53;2.33;;;7.00;99.90;;;;;;4992718;28;20430;-48
2024/03/25 03:45:45;;;;;;;7.72;2.70;;;6.90;99.90;;;;;;4991550;28;20033;-50
2024/03/25 03:48:11;;;;;;;10.05;2.50;;;6.90;99.90;;;;;;4992521;28;20030;-50
2024/03/25 03:50:36;;;;;;;12.68;2.78;;;6.80;99.90;;;;;;4991200;28;20036;-49
2024/03/25 03:53:02;;;;;;;5.55;2.22;;;6.70;99.90;;;;;;4992238;28;20034;-49
2024/03/25 03:55:28;;;;;;;4.00;1.85;;;6.70;99.90;;;;;;4991223;28;20030;-52
2024/03/25 03:57:53;;;;;;;9.30;2.00;;;6.70;99.90;;;;;;4992285;28;20029;-46
2024/03/25 04:00:18;;;;;;;3.33;2.25;;;6.60;99.90;;;;;;4992262;28;20082;-45
2024/03/25 04:02:44;;;;;;;5.18;2.03;;;6.60;99.90;;;;;;4992406;28;20509;-51
2024/03/25 04:05:10;;;;;;;4.93;2.05;;;6.60;99.90;;;;;;4992261;28;20030;-53
2024/03/25 04:07:35;;;;;;;5.35;2.20;;;6.60;99.90;;;;;;4991037;28;20040;-45
2024/03/25 04:10:01;;;;;;;11.70;2.72;;;6.60;99.90;;;;;;4991251;28;20030;-49
2024/03/25 04:12:26;;;;;;;6.45;2.35;;;6.50;99.90;;;;;;4990697;28;20022;-45
2024/03/25 04:14:55;;;;;;;4.80;2.13;;;6.50;99.90;;;;;;4992468;28;20491;-46
2024/03/25 04:17:21;;;;;;;4.45;2.10;;;6.40;99.90;;;;;;4990773;28;20114;-51
2024/03/25 04:19:50;;;;;;;10.75;2.25;;;6.40;99.90;;;;;;4992066;28;20019;-52
2024/03/25 04:22:16;;;;;;;9.38;2.50;;;6.40;99.90;;;;;;4990619;28;20034;-47
2024/03/25 04:24:46;;;;;;;11.13;2.30;;;6.30;99.90;;;;;;4990788;28;20026;-49
2024/03/25 04:27:11;;;;;;;4.68;2.17;;;6.30;99.90;;;;;;4992111;28;20041;-51
2024/03/25 04:29:37;;;;;;;9.25;2.22;;;6.20;99.90;;;;;;4990853;28;20491;-52
2024/03/25 04:32:02;;;;;;;7.05;2.08;;;6.20;99.90;;;;;;4991852;28;20041;-49
2024/03/25 04:34:29;;;;;;;11.27;2.35;;;6.10;99.90;;;;;;4991802;28;20108;-49
2024/03/25 04:36:55;;;;;;;10.38;2.60;;;6.10;99.90;;;;;;4990669;28;20034;-48
2024/03/25 04:39:22;;;;;;;7.20;2.45;;;6.10;99.90;;;;;;4991940;28;20106;-51
2024/03/25 04:41:47;;;;;;;7.82;2.50;;;6.00;99.90;;;;;;4991931;28;20032;-53
2024/03/25 04:44:13;;;;;;;12.40;2.45;;;6.00;99.90;;;;;;4992985;28;20105;-51
2024/03/25 04:46:38;;;;;;;9.70;3.00;;;6.00;99.90;;;;;;4994935;28;20072;-49
2024/03/25 04:49:04;;;;;;;2.30;1.83;;;6.00;99.90;;;;;;4996253;28;20046;-47
2024/03/25 04:51:29;;;;;;;7.72;2.22;;;6.00;99.90;;;;;;4996285;28;20034;-48
2024/03/25 04:53:55;;;;;;;8.38;2.30;;;6.00;99.90;;;;;;4996067;28;20084;-45
2024/03/25 04:56:20;;;;;;;9.60;2.70;;;6.00;99.90;;;;;;4996508;28;20022;-46
2024/03/25 04:58:46;;;;;;;6.57;2.50;;;6.00;99.90;;;;;;4995814;28;20105;-48
2024/03/25 05:01:11;;;;;;;8.10;2.40;;;5.90;99.90;;;;;;4996664;28;20031;-47
2024/03/25 05:03:37;;;;;;;9.60;2.67;;;5.90;99.90;;;;;;4995779;28;20112;-48
2024/03/25 05:06:05;;;;;;;7.05;2.10;;;5.80;99.90;;;;;;4996716;28;20030;-45
2024/03/25 05:08:31;;;;;;;7.00;2.65;;;5.70;99.90;;;;;;4996391;28;20073;-46
2024/03/25 05:10:56;;;;;;;8.45;2.78;;;5.60;99.90;;;;;;4996949;28;20026;-53
2024/03/25 05:13:22;;;;;;;5.55;2.08;;;;;;;;;;4997399;28;20030;-48
2024/03/25 05:15:52;;;;;;;7.88;3.20;;;5.50;99.90;;;;;;4994495;28;20121;-45
2024/03/25 05:18:18;;;;;;;6.88;2.33;;;5.40;99.90;;;;;;4995531;28;20022;-45
2024/03/25 05:20:43;;;;;;;5.25;2.80;;;5.30;99.90;;;;;;4995349;28;20085;-49
2024/03/25 05:23:09;;;;;;;9.13;2.75;;;5.30;99.90;;;;;;4995720;28;20034;-48
2024/03/25 05:25:35;;;;;;;11.05;2.55;;;5.20;99.90;;;;;;4995464;28;20034;-45
2024/03/25 05:28:00;;;;;;;4.68;2.13;;;5.20;99.90;;;;;;4995131;28;20085;-50
2024/03/25 05:30:26;;;;;;;3.65;2.45;;;5.20;99.90;;;;;;4995032;28;20042;-47
2024/03/25 05:32:51;;;;;;;6.35;2.55;;;5.20;99.90;;;;;;4994956;28;20495;-46
2024/03/25 05:35:17;;;;;;;5.90;2.55;;;5.20;99.90;;;;;;4995031;28;20382;-46
2024/03/25 05:37:42;;;;;;;6.68;2.85;;;5.30;99.90;;;;;;4995040;28;20034;-48
2024/03/25 05:40:11;;;;;;;8.85;2.50;;;5.40;99.90;;;;;;4995113;28;20376;-50
2024/03/25 05:42:37;;;;;;;8.95;2.70;;;5.50;99.90;;;;;;4994637;28;20031;-49
2024/03/25 05:45:03;;;;;;;10.05;2.47;;;5.60;99.90;;;;;;4994609;28;20035;-44
2024/03/25 05:47:28;;;;;;;10.63;2.53;;;5.80;99.90;;;;;;4994632;28;20030;-49
2024/03/25 05:49:54;;;;;;;7.80;2.28;;;6.00;99.90;;;;;;4994841;28;20026;-53
2024/03/25 05:52:19;;;;;;;7.28;2.10;;;6.20;99.90;;;;;;4994526;28;20027;-49
2024/03/25 05:54:45;;;;;;;9.07;2.33;;;6.50;99.90;;;;;;4993381;28;20418;-50
2024/03/25 05:57:10;;;;;;;11.93;2.20;;;6.70;99.90;;;;;;4993392;28;20102;-51
2024/03/25 05:59:36;;;;;;;5.40;1.95;;;6.80;99.90;;;;;;4994617;28;20033;-49
2024/03/25 06:02:01;;;;;;;4.35;2.20;;;6.80;99.90;;;;;;4994362;28;20030;-46
2024/03/25 06:04:27;;;;;;;9.63;1.90;;;6.70;99.90;;;;;;4993022;28;20490;-46
2024/03/25 06:06:52;;;;;;;7.85;1.75;;;6.60;99.90;;;;;;4994426;28;20034;-49
2024/03/25 06:09:18;;;;;;;9.68;2.58;;;6.50;99.90;;;;;;4994342;28;20035;-46
2024/03/25 06:11:43;;;;;;;8.05;2.65;;;6.50;99.90;;;;;;4994173;28;20494;-48
2024/03/25 06:14:09;;;;;;;10.77;2.08;;;6.60;99.90;;;;;;4993053;28;20018;-53
2024/03/25 06:16:34;;;;;;;5.38;2.22;;;6.90;99.90;;;;;;4994296;28;20026;-46
2024/03/25 06:19:00;;;;;;;4.22;2.10;;;7.00;99.90;;;;;;4994299;28;20517;-46
2024/03/25 06:21:25;;;;;;;2.80;2.10;;;7.20;99.90;;;;;;4994012;28;20033;-47
2024/03/25 06:23:50;;;;;;;7.05;2.35;;;7.30;99.90;;;;;;4994028;28;20510;-46
2024/03/25 06:26:16;;;;;;;4.05;2.00;;;7.60;99.90;;;;;;4994138;28;20041;-46
2024/03/25 06:28:42;;;;;;;7.82;1.70;;;7.80;99.90;;;;;;4994005;28;20554;-48
2024/03/25 06:36:37;;;;;;;4.85;1.70;;;8.80;99.90;;;;;;4994049;28;20199;-51
2024/03/25 06:39:03;;;;;;;5.55;2.47;;;9.30;99.90;;;;;;4993894;28;20053;-47
2024/03/25 06:41:29;;;;;;;6.90;2.42;;;;;;;;;;4993789;28;20037;-49
2024/03/25 06:43:54;;;;;;;3.80;1.75;;;10.20;99.90;;;;;;4993858;28;20052;-49
2024/03/25 06:46:20;;;;;;;5.00;1.58;;;10.60;99.90;;;;;;4993843;28;20025;-52
2024/03/25 06:48:46;;;;;;;10.45;2.42;;;11.10;99.90;;;;;;4993356;28;20018;-47
2024/03/25 06:51:11;;;;;;;9.38;2.13;;;11.80;99.90;;;;;;4993489;28;20390;-50
2024/03/25 06:53:37;;;;;;;5.47;2.25;;;;;;;;;;4993399;28;20034;-53
2024/03/25 06:56:03;;;;;;;4.93;2.15;;;13.40;99.90;;;;;;4993556;28;20026;-51
2024/03/25 06:58:29;;;;;;;9.18;3.22;;;13.80;98.20;;;;;;4993088;28;20451;-53
2024/03/25 07:00:56;;;;;;;6.25;2.42;;;14.30;97.60;;;;;;4993382;28;20077;-52
2024/03/25 07:03:23;;;;;;;2.63;2.00;;;;;;;;;;4993916;28;20026;-47
2024/03/25 07:05:52;;;;;;;3.75;1.92;;;;;;;;;;4993423;28;20113;-47
2024/03/25 07:08:21;;;;;;;8.50;2.05;;;;;;;;;;4993194;28;20049;-48
2024/03/25 07:10:47;;;;;;;4.60;1.80;;;;;;;;;;4993071;28;20030;-51
2024/03/25 07:13:13;;;;;;;2.67;2.10;;;;;;;;;;4991586;28;20030;-54
2024/03/25 07:15:39;;;;;;;5.65;2.40;;;17.00;96.70;;;;;;4993143;28;20014;-52
2024/03/25 07:18:05;;;;;;;2.80;1.70;;;17.00;92.80;;;;;;4992881;28;20108;-50
2024/03/25 07:20:31;;;;;;;6.38;2.58;;;17.10;93.00;;;;;;4992964;28;20050;-48
2024/03/25 07:22:57;;;;;;;3.63;2.08;;;16.90;93.00;;;;;;4993198;28;20030;-51
2024/03/25 07:25:26;;;;;;;4.82;1.83;;;17.00;93.00;;;;;;4993322;28;20053;-47
2024/03/25 07:27:52;;;;;;;4.97;1.90;;;17.10;91.80;;;;;;4992832;28;20376;-48
2024/03/25 07:30:18;;;;;;;2.83;1.80;;;17.20;92.00;;;;;;4993001;28;20105;-52
2024/03/25 07:35:12;;;;;;;4.85;1.83;;;18.30;91.10;;;;;;5030833;22;20481;-45
2024/03/25 07:37:38;;;;;;;5.22;1.98;;;19.10;90.00;;;;;;5012257;28;20060;-48
2024/03/25 07:40:04;;;;;;;8.55;2.10;;;19.00;87.20;;;;;;5012414;28;20409;-47
2024/03/25 07:42:30;;;;;;;4.60;2.10;;;19.20;87.90;;;;;;5010911;28;20037;-50
2024/03/25 07:44:56;;;;;;;3.50;1.80;;;19.00;88.80;;;;;;5012297;28;20030;-46
2024/03/25 07:47:21;;;;;;;4.82;2.40;;;18.80;89.30;;;;;;5012159;28;20030;-43
2024/03/25 07:49:47;;;;;;;7.25;2.35;;;19.30;87.80;;;;;;5010842;28;20057;-49
2024/03/25 07:52:13;;;;;;;5.60;2.13;;;19.70;86.70;;;;;;5011789;28;20037;-42
2024/03/25 07:54:39;;;;;;;2.13;1.35;;;20.20;85.10;;;;;;5010749;28;20076;-49
2024/03/25 07:57:04;;;;;;;4.85;1.80;;;19.90;89.00;;;;;;5011575;28;20494;-50
2024/03/25 07:59:30;;;;;;;4.65;1.70;;;19.90;88.50;;;;;;5012062;28;20508;-49
2024/03/25 08:01:56;;;;;;;2.30;1.30;;;19.90;88.30;;;;;;5010809;28;20029;-50
2024/03/25 08:04:21;;;;;;;6.10;2.25;;;19.40;88.80;;;;;;5012838;28;20068;-48
2024/03/25 08:06:47;;;;;;;4.78;1.55;;;;;;;;;;5011999;28;20026;-50
2024/03/25 08:09:15;;;;;;;4.55;1.77;;;17.00;99.90;;;;;;5010466;28;20458;-46
2024/03/25 08:11:43;;;;;;;3.80;1.42;;;16.40;98.40;;;;;;5011781;28;20095;-48
2024/03/25 08:14:09;;;;;;;3.85;1.40;;;15.40;98.90;;;;;;5011798;28;20053;-46
2024/03/25 08:16:34;;;;;;;7.57;1.88;;;14.60;94.70;;;;;;5011715;28;20034;-46
2024/03/25 08:19:00;;;;;;;7.25;2.13;;;13.60;94.80;;;;;;5011388;28;20347;-46
2024/03/25 08:21:25;;;;;;;7.60;2.45;;;13.00;95.20;;;;;;5012220;28;20022;-49
2024/03/25 08:23:51;;;;;;;7.22;1.73;;;12.80;99.90;;;;;;5011682;28;20474;-47
2024/03/25 08:26:17;;;;;;;12.95;2.45;;;12.10;97.00;;;;;;5011870;28;20101;-44
2024/03/25 08:28:42;;;;;;;15.95;2.80;;;11.60;97.70;;;;;;5011500;28;20104;-48
2024/03/25 08:31:07;;;;;;;11.32;2.63;;;11.30;98.80;;;;;;5011649;28;20033;-51
2024/03/25 08:33:33;;;;;;;4.18;1.92;;;11.10;98.50;;;;;;5011535;28;20540;-47
2024/03/25 08:35:58;;;;;;;5.85;2.40;;;10.80;99.10;;;;;;5010327;28;20117;-46
2024/03/25 08:38:24;;;;;;;7.75;2.25;;;10.60;99.80;;;;;;5011372;28;20050;-49
2024/03/25 08:40:51;;;;;;;4.05;1.60;;;10.50;99.70;;;;;;5011296;28;20045;-46
2024/03/25 08:43:17;;;;;;;8.98;3.15;;;10.40;99.90;;;;;;5011804;28;20501;-51
2024/03/25 08:45:43;;;;;;;7.00;1.88;;;10.50;99.90;;;;;;5011597;28;20053;-50
2024/03/25 08:48:09;;;;;;;7.38;2.75;;;10.50;99.90;;;;;;5011638;28;20069;-47
2024/03/25 08:50:34;;;;;;;10.35;2.25;;;10.60;99.90;;;;;;5011458;28;20061;-51
2024/03/25 08:53:00;;;;;;;10.20;1.90;;;10.70;99.20;;;;;;5010140;28;20041;-46
2024/03/25 08:55:27;;;;;;;5.82;1.40;;;10.60;98.80;;;;;;5011586;28;20072;-46
2024/03/25 08:57:53;;;;;;;9.88;2.45;;;11.00;99.10;;;;;;5011461;28;20538;-49
2024/03/25 09:00:18;;;;;;;5.70;1.92;;;11.90;98.40;;;;;;5011566;28;20046;-47
2024/03/25 09:02:44;;;;;;;6.35;1.92;;;13.30;96.40;;;;;;5011349;28;20026;-47
2024/03/25 09:05:10;;;;;;;8.70;1.98;;;14.60;94.20;;;;;;5011472;28;20037;-50
2024/03/25 09:07:35;;;;;;;6.07;1.65;;;16.00;91.80;;;;;;5011521;28;20152;-49
2024/03/25 09:12:50;;;;;;;9.60;2.22;;;17.40;87.10;;;;;;5001067;28;20064;-48
2024/03/25 09:15:15;;;;;;;4.35;1.58;;;17.90;85.70;;;;;;5011473;28;20468;-51
2024/03/25 09:17:41;;;;;;;9.40;2.10;;;18.00;86.30;;;;;;5011465;28;20080;-46
2024/03/25 09:20:16;;;;;;;8.00;2.40;;;18.50;82.90;;;;;;5011427;28;20022;-46
2024/03/25 09:22:45;;;;;;;;;;;18.90;82.60;;;;;;5010406;28;20073;-51
2024/03/25 09:25:11;;;;;;;8.25;1.80;;;18.70;80.70;;;;;;5011365;28;19956;-45
2024/03/25 09:27:36;;;;;;;6.53;1.40;;;17.90;83.00;;;;;;5011421;28;20069;-46
2024/03/25 09:30:03;;;;;;;8.18;1.73;;;17.80;83.60;;;;;;5011694;28;20041;-51
2024/03/25 09:32:32;;;;;;;4.53;1.88;;;18.00;82.70;;;;;;5013904;28;20112;-46
2024/03/25 09:34:58;;;;;;;6.97;1.83;;;18.10;82.30;;;;;;5014698;28;20034;-48
2024/03/25 09:37:23;;;;;;;3.33;1.50;;;18.20;82.00;;;;;;5013582;28;20053;-46
2024/03/25 09:39:49;;;;;;;5.80;1.70;;;18.20;83.10;;;;;;5014764;28;20030;-47
2024/03/25 09:42:18;;;;;;;5.22;1.70;;;17.30;82.60;;;;;;5014527;28;20105;-49
2024/03/25 09:44:44;;;;;;;4.60;1.60;;;16.70;84.50;;;;;;5014418;28;20034;-45
2024/03/25 09:47:11;;;;;;;5.22;1.60;;;16.60;83.70;;;;;;5014513;28;20544;-46
2024/03/25 09:49:40;;;;;;;1.92;1.20;;;16.70;85.10;;;;;;5014751;28;20117;-47
2024/03/25 09:52:06;;;;;;;4.65;1.50;;;16.70;83.40;;;;;;5014369;28;20026;-48
2024/03/25 09:54:32;;;;;;;4.57;1.80;;;16.70;85.00;;;;;;5013008;28;20022;-46
2024/03/25 09:56:59;;;;;;;6.00;1.80;;;16.80;84.40;;;;;;5013985;28;20089;-46
2024/03/25 09:59:24;;;;;;;11.18;3.85;;;16.50;84.80;;;;;;5014235;28;20034;-47
2024/03/25 10:01:50;;;;;;;3.90;1.50;;;16.40;85.20;;;;;;5012864;28;20029;-50
2024/03/25 10:04:16;;;;;;;4.75;1.30;;;16.30;83.40;;;;;;5013978;28;20025;-45
2024/03/25 10:06:41;;;;;;;6.88;1.95;;;15.90;84.30;;;;;;5012901;28;20013;-48
2024/03/25 10:09:07;;;;;;;3.78;1.55;;;16.00;84.70;;;;;;5014613;28;20069;-50
2024/03/25 10:11:35;;;;;;;4.60;1.75;;;15.80;83.00;;;;;;5013826;28;20072;-48
2024/03/25 10:14:03;;;;;;;4.90;2.00;;;15.50;84.80;;;;;;5013745;28;20056;-48
2024/03/25 10:16:29;;;;;;;6.57;1.88;;;15.30;86.50;;;;;;5012685;28;20022;-49
2024/03/25 10:18:54;;;;;;;9.75;1.88;;;15.20;88.10;;;;;;5012446;28;20026;-47
2024/03/25 10:21:23;;;;;;;4.53;1.42;;;15.10;88.40;;;;;;5013876;28;20036;-46
2024/03/25 10:23:49;;;;;;;7.53;1.55;;;15.00;89.70;;;;;;5012661;28;20498;-46
2024/03/25 10:26:28;;;;;;;3.20;1.48;;;15.10;89.80;;;;;;5014050;28;20113;-47
2024/03/25 10:29:06;;;;;;;10.05;2.72;;;15.10;89.00;;;;;;5013721;28;20026;-47
2024/03/25 10:31:31;;;;;;;2.38;1.40;;;15.10;89.10;;;;;;5013480;28;20034;-47
2024/03/25 10:33:57;;;;;;;3.67;2.08;;;15.40;89.40;;;;;;5013553;28;20030;-49
2024/03/25 10:36:24;;;;;;;2.60;1.45;;;15.70;88.90;;;;;;5013412;28;20025;-48
2024/03/25 10:38:54;;;;;;;4.03;1.70;;;15.60;86.30;;;;;;5013531;28;20058;-48
2024/03/25 10:41:20;;;;;;;3.28;1.83;;;15.20;87.80;;;;;;5012891;28;20018;-49
2024/03/25 10:43:47;;;;;;;5.72;1.85;;;14.80;87.50;;;;;;5013100;28;20072;-49
2024/03/25 10:46:21;;;;;;;5.82;1.92;;;14.70;88.90;;;;;;5013308;28;20030;-48
2024/03/25 10:49:07;;;;;;;6.70;2.20;;;14.70;88.70;;;;;;5012778;28;20022;-48
2024/03/25 10:51:33;;;;;;;;;;;;;;;;;;5011697;28;20025;-50
2024/03/25 10:54:00;;;;;;;6.97;1.92;;;;;;;;;;5011737;28;20344;-48
2024/03/25 10:56:26;;;;;;;7.75;2.00;;;;;;;;;;5012269;28;20080;-47
2024/03/25 10:58:53;;;;;;;5.65;1.88;;;;;;;;;;5013026;28;20017;-46
2024/03/25 11:01:19;;;;;;;6.40;2.08;;;;;;;;;;5012306;28;20068;-44
2024/03/25 11:03:47;;;;;;;3.10;1.83;;;;;;;;;;5012596;28;20053;-48
2024/03/25 11:06:12;;;;;;;7.47;1.95;;;;;;;;;;5012916;28;20037;-48
2024/03/25 11:08:39;;;;;;;4.43;1.95;;;;;;;;;;5012297;28;20489;-48
2024/03/25 11:11:06;;;;;;;3.20;1.60;;;;;;;;;;5012988;28;20026;-49
2024/03/25 11:13:32;;;;;;;3.03;1.67;;;;;;;;;;5010740;28;20101;-46
2024/03/25 11:15:59;;;;;;;6.10;2.50;;;;;;;;;;5011966;28;20030;-47
2024/03/25 11:18:25;;;;;;;33.08;19.45;;;13.90;99.20;;;;;;5012180;28;20013;-47
2024/03/25 11:21:05;;;;;;;7.00;2.50;;;13.70;91.30;;;;;;5012394;28;20104;-51
2024/03/25 11:23:44;;;;;;;2.90;1.52;;;13.30;90.70;;;;;;5011200;28;20025;-47
2024/03/25 11:26:21;;;;;;;5.20;1.75;;;13.20;91.20;;;;;;5008134;28;20069;-46
2024/03/25 11:28:48;;;;;;;6.15;2.08;;;13.20;91.90;;;;;;5007322;28;20088;-48
2024/03/25 11:31:15;;;;;;;5.50;1.60;;;13.10;91.50;;;;;;5002867;28;20126;-49
2024/03/25 11:33:41;;;;;;;6.78;2.30;;;13.10;92.00;;;;;;5011058;28;20089;-50
2024/03/25 11:36:07;;;;;;;7.47;1.88;;;13.10;92.60;;;;;;5011228;28;20152;-47
2024/03/25 11:38:32;;;;;;;3.65;1.85;;;13.10;91.90;;;;;;5011167;28;20316;-47
2024/03/25 11:40:58;;;;;;;4.10;2.15;;;13.00;91.60;;;;;;5011169;28;20494;-52
2024/03/25 11:43:23;;;;;;;3.53;1.80;;;13.00;92.20;;;;;;5010816;28;20449;-50
2024/03/25 11:45:49;;;;;;;5.38;2.55;;;12.90;93.10;;;;;;5013396;28;20057;-54
2024/03/25 11:48:18;;;;;;;3.13;1.60;;;12.90;92.20;;;;;;5010956;28;20030;-50
2024/03/25 11:50:47;;;;;;;3.88;1.77;;;12.80;92.70;;;;;;5007974;28;20030;-51
2024/03/25 11:53:14;;;;;;;5.53;1.92;;;12.70;93.00;;;;;;5010351;28;20675;-52
2024/03/25 11:55:41;;;;;;;5.43;1.90;;;12.70;92.60;;;;;;5010344;28;20037;-51
2024/03/25 11:58:07;;;;;;;3.88;2.13;;;12.70;92.00;;;;;;5008327;28;20025;-55
2024/03/25 12:00:33;;;;;;;6.60;1.75;;;12.70;93.00;;;;;;5009331;28;20101;-48
2024/03/25 12:02:59;;;;;;;7.22;1.70;;;12.70;91.80;;;;;;5010854;28;20504;-45
2024/03/25 12:05:25;;;;;;;6.15;2.15;;;12.60;92.00;;;;;;5010019;28;20026;-53
2024/03/25 12:07:50;;;;;;;1.88;1.60;;;12.70;91.00;;;;;;5009046;28;20068;-49
2024/03/25 12:13:01;;;;;;;3.13;1.65;;;12.70;91.10;;;;;;5011513;28;20084;-51
2024/03/25 12:15:27;;;;;;;3.13;1.65;;;12.80;91.40;;;;;;5010771;28;20518;-52
2024/03/25 12:17:53;;;;;;;5.10;1.63;;;12.90;91.90;;;;;;5011772;28;20030;-52
2024/03/25 12:20:20;;;;;;;8.38;2.33;;;12.70;91.50;;;;;;5011507;28;20037;-50
2024/03/25 12:22:45;;;;;;;4.35;2.00;;;12.70;91.20;;;;;;5010410;28;20128;-50
2024/03/25 12:25:11;;;;;;;3.65;2.17;;;12.70;91.90;;;;;;5011086;28;20556;-55
2024/03/25 12:27:38;;;;;;;2.17;1.33;;;12.70;91.60;;;;;;5010250;28;20029;-53
2024/03/25 12:30:08;;;;;;;3.70;1.50;;;12.70;91.80;;;;;;5012302;28;20025;-49
2024/03/25 12:32:38;;;;;;;4.68;1.70;;;12.60;92.30;;;;;;5011319;28;20030;-49
2024/03/25 12:35:09;;;;;;;4.90;2.00;;;12.70;91.90;;;;;;5011186;28;20117;-51
2024/03/25 12:37:39;;;;;;;4.22;2.45;;;12.70;91.40;;;;;;5009463;28;20034;-51
2024/03/25 12:40:07;;;;;;;7.30;2.10;;;12.70;91.60;;;;;;5012092;28;20045;-51
2024/03/25 12:42:33;;;;;;;42.00;22.95;;;12.50;91.60;;;;;;5010636;28;20022;-51
2024/03/25 12:44:59;;;;;;;34.03;18.67;;;12.40;91.30;;;;;;5011188;28;20374;-49
2024/03/25 12:47:25;;;;;;;23.80;12.73;;;12.30;91.70;;;;;;5011813;28;20029;-47
2024/03/25 12:49:50;;;;;;;9.57;3.38;;;12.20;91.60;;;;;;5011733;28;20029;-52
2024/03/25 12:52:16;;;;;;;2.78;1.65;;;12.30;91.90;;;;;;5010146;28;20113;-51
2024/03/25 12:54:41;;;;;;;2.53;1.85;;;12.30;92.00;;;;;;5010254;28;20033;-52
2024/03/25 12:57:07;;;;;;;3.42;1.80;;;12.40;91.50;;;;;;5011481;28;20370;-50
2024/03/25 12:59:33;;;;;;;3.75;2.08;;;12.40;91.80;;;;;;5011545;28;20453;-52
2024/03/25 13:01:59;;;;;;;3.80;1.83;;;12.50;92.00;;;;;;5010138;28;20057;-54
2024/03/25 13:04:26;;;;;;;4.63;1.50;;;12.60;91.90;;;;;;5011654;28;20037;-54
2024/03/25 13:06:52;;;;;;;2.40;1.63;;;12.60;91.60;;;;;;5014144;28;20026;-51